MUC | München Airways

 METAR UND TAF INFORMATION

METAR FOR LCPH
ADDS - METARS form results

(0549 UTC 24 May 2019)
Data provider http://aviationweather.gov/metar/data/
 
METAR text: LCPH 240530Z 28005KT 250V340 CAVOK 25/17 Q1007
Conditions at: LCPH (PAPHOS/BAF INTL , CY) observed 0530 UTC 24 May 2019
Temperature: 25.0°C (77°F)
Dewpoint: 17.0°C (63°F) [RH = 61%]
Pressure (altimeter): 29.73 inches Hg (1007.0 mb)
Winds: from the W (280 degrees) at 6 MPH (5 knots; 2.6 m/s)
Visibility: 6 or more miles (10+ km)
Ceiling: ceiling and visibility are OK
Clouds: unknown
Weather: no significant weather observed at this time

METAR text: LCPH 240500Z 35003KT 290V030 CAVOK 26/16 Q1007
Conditions at: LCPH (PAPHOS/BAF INTL , CY) observed 0500 UTC 24 May 2019
Temperature: 26.0°C (79°F)
Dewpoint: 16.0°C (61°F) [RH = 54%]
Pressure (altimeter): 29.73 inches Hg (1007.0 mb)
Winds: from the N (350 degrees) at 3 MPH (3 knots; 1.5 m/s)
Visibility: 6 or more miles (10+ km)
Ceiling: ceiling and visibility are OK
Clouds: unknown
Weather: no significant weather observed at this time

Forecast for: LCPH (PAPHOS/BAF INTL , CY)
Text: TAF LCPH 240530Z 2406/2506 36009KT CAVOK
Forecast period: 0600 to 0700 UTC 24 May 2019
Forecast type: FROM: standard forecast or significant change
Winds: from the N (360 degrees) at 10 MPH (9 knots; 4.6 m/s)
Visibility: 6 or more miles 10+ km)
Ceiling: unknown
Clouds: missing
Weather: NSW  (no significant weather)
Text: PROB30 2406/2417 5000 DU
Forecast period: 0600 to 1700 UTC 24 May 2019
Forecast type: PROBABLE: 30 percent likelihood of the following during this time
Visibility: 3 miles (5 km)
Ceiling: unknown
Clouds: missing
Weather: DU  (widespread dust)
Text: BECMG 2407/2411 30016KT
Forecast period: 0700 to 2200 UTC 24 May 2019
Forecast type: BECOMING: Conditions expected to become as follows by 1100 UTC 24 May 2019
Winds: from the WNW (300 degrees) at 18 MPH (16 knots; 8.2 m/s)
Visibility: 6 or more miles 10+ km)
Ceiling: unknown
Clouds: missing
Weather: NSW  (no significant weather)
Text: BECMG 2422/2502 36009KT
Forecast period: 2200 UTC 24 May 2019 to 0600 UTC 25 May 2019
Forecast type: BECOMING: Conditions expected to become as follows by 0200 UTC 25 May 2019
Winds: from the N (360 degrees) at 10 MPH (9 knots; 4.6 m/s)
Visibility: 6 or more miles 10+ km)
Ceiling: unknown
Clouds: missing
Weather: NSW  (no significant weather)

 FLUGHAFENKARTE

 RUNWAY INFORMATION
Runway 11 Runway length 8858 ft Runway width 148 ft
Runway elevation 41 ft Runway displaced threshold 0 ft Runway heading 110
Runway 29 Runway length 8858 ft Runway width 148 ft
Runway elevation 30 ft Runway displaced threshold 0 ft Runway heading 290

 AIRPORT FREQUENCIES
Type APP Name APP Frequency 120.8 MHZ
Type TWR Name TWR Frequency 119.9 MHZ

 AIRPORT NEAR NAVIGATION AIDS
Type TACAN Name Pafos Frequency 113200 KHZ
Type VOR-DME Name Pafos Frequency 117900 KHZ
Type NDB Name Pafos Frequency 328 KHZ